Data for 10/01/2013

Time Sea-Level Adjusted Pressure Absolute Pressure Temperature Relative Humidity Dew Point   
(mb) (inHg) (mb) (inHg) (C) (F) (%) (C) (F)
00:05 1016 30 846 24.98 3.6 38.4 63 -2.7 27.1
00:10 1016 30 846 24.98 3.5 38.3 62 -3.1 26.4
00:15 1016 30 846 24.98 3.4 38.1 64 -2.8 27
00:20 1016 30 846 24.98 3.2 37.8 64 -3 26.7
00:25 1017 30.03 846 24.98 3 37.3 65 -2.9 26.8
00:30 1017 30.03 846 24.98 2.6 36.8 68 -2.7 27.2
00:35 1016 30 846 24.98 2.2 35.9 70 -2.7 27.1
00:40 1016 30 846 24.98 1.9 35.4 69 -3.2 26.3
00:45 1016 30 846 24.98 2.1 35.7 68 -3.3 26.1
00:50 1016 30 846 24.98 2.2 36 69 -2.9 26.8
00:55 1016 30 846 24.98 2.2 35.9 67 -3.3 26.1
01:00 1016 30 846 24.98 2.4 36.4 66 -3.3 26.1
01:05 1016 30 846 24.98 2.6 36.8 65 -3.3 26.1
01:10 1016 30 846 24.98 2.7 36.9 65 -3.3 26.1
01:15 1016 30 846 24.98 2.8 37.1 62 -3.7 25.3
01:20 1016 30 846 24.98 3.3 38 55 -4.8 23.4
01:25 1016 30 846 24.98 4.3 39.7 52 -4.8 23.4
01:30 1016 30 846 24.98 4.7 40.4 52 -4.3 24.2
01:35 1016 30 846 24.98 4.6 40.4 53 -4 24.8
01:40 1016 30 846 24.98 4.1 39.4 56 -3.8 25.2
01:45 1016 30 846 24.98 3.9 39 56 -4.1 24.7
01:50 1016 30 846 24.98 3.7 38.7 59 -3.5 25.7
01:55 1016 30 846 24.98 3.2 37.8 60 -3.7 25.3
02:00 1016 30 846 24.98 3.3 37.9 60 -3.7 25.3
02:05 1016 30 846 24.98 3.3 38 61 -3.5 25.6
02:10 1016 30 846 24.98 3.2 37.7 62 -3.4 25.8
02:15 1016 30 846 24.98 3 37.4 64 -3.2 26.2
02:20 1016 30 846 24.98 3 37.3 63 -3.3 26.1
02:25 1016 30 846 24.98 2.9 37.3 65 -3 26.5
02:30 1016 30 846 24.98 2.8 37.1 62 -3.7 25.4
02:35 1016 30 846 24.98 3.1 37.6 61 -3.7 25.3
02:40 1016 30 846 24.98 3.2 37.8 62 -3.4 26
02:45 1016 30 846 24.98 3.2 37.7 60 -3.8 25.2
02:50 1016 30 846 24.98 3.3 37.9 60 -3.8 25.2
02:55 1016 30 846 24.98 3.3 38 59 -3.9 25
03:00 1016 30 846 24.98 3.3 38 60 -3.8 25.2
03:05 1016 30 846 24.98 3.1 37.6 60 -4 24.8
03:10 1016 30 846 24.98 3.2 37.8 59 -4 24.8
03:15 1016 30 846 24.98 3.1 37.6 60 -3.9 25.1
03:20 1016 30 845 24.95 2.9 37.2 61 -3.8 25.2
03:25 1016 30 845 24.95 2.7 36.8 64 -3.5 25.7
03:30 1016 30 846 24.98 2.2 36 65 -3.6 25.5
03:35 1016 30 846 24.98 2.1 35.8 65 -3.9 25.1
03:40 1016 30 846 24.98 2.3 36.1 64 -3.8 25.1
03:45 1016 30 846 24.98 2.4 36.3 64 -3.7 25.4
03:50 1016 30 846 24.98 2.2 35.9 66 -3.5 25.7
03:55 1016 30 846 24.98 2 35.5 68 -3.4 25.9
04:00 1016 30 846 24.98 1.7 35 70 -3.3 26.1
04:05 1016 30 846 24.98 1.5 34.6 69 -3.5 25.7
04:10 1016 30 846 24.98 1.5 34.7 68 -3.8 25.1
04:15 1016 30 846 24.98 1.8 35.2 62 -4.7 23.6
04:20 1016 30 846 24.98 2.6 36.6 56 -5.3 22.5
04:25 1016 30 846 24.98 2.7 36.8 61 -4.2 24.5
04:30 1016 30 846 24.98 2.1 35.8 58 -5.4 22.3
04:35 1016 30 846 24.98 2.2 36 62 -4.2 24.4
04:40 1016 30 846 24.98 1.9 35.4 62 -4.6 23.7
04:45 1016 30 846 24.98 2 35.7 61 -4.7 23.6
04:50 1017 30.03 846 24.98 2.3 36.2 60 -4.7 23.6
04:55 1017 30.03 846 24.98 2.3 36.2 60 -4.7 23.6
05:00 1017 30.03 846 24.98 2.2 36 62 -4.3 24.3
05:05 1017 30.03 846 24.98 1.6 34.9 66 -4.1 24.7
05:10 1017 30.03 846 24.98 1.1 34 66 -4.5 23.9
05:15 1017 30.03 846 24.98 1.1 34 66 -4.5 23.9
05:20 1017 30.03 846 24.98 1.2 34.2 65 -4.6 23.6
05:25 1017 30.03 846 24.98 1.3 34.3 65 -4.5 24
05:30 1017 30.03 846 24.98 1.5 34.7 63 -4.7 23.5
05:35 1017 30.03 846 24.98 1.6 34.9 63 -4.6 23.7
05:40 1017 30.03 846 24.98 1.6 34.9 63 -4.6 23.7
05:45 1017 30.03 846 24.98 1.4 34.5 67 -4.1 24.6
05:50 1017 30.03 846 24.98 0.8 33.4 69 -4.3 24.3
05:55 1017 30.03 846 24.98 0.5 32.9 70 -4.4 24
06:00 1017 30.03 846 24.98 0.5 32.9 69 -4.5 24
06:05 1017 30.03 846 24.98 0.3 32.6 71 -4.4 24.2
06:10 1017 30.03 846 24.98 0.1 32.2 70 -4.7 23.5
06:15 1017 30.03 846 24.98 0.7 33.2 65 -5.1 22.8
06:20 1017 30.03 846 24.98 1.1 33.9 67 -4.4 24.1
06:25 1017 30.03 846 24.98 0.5 32.9 69 -4.5 24
06:30 1016 30 846 24.98 0.2 32.3 71 -4.6 23.8
06:35 1017 30.03 846 24.98 -0 31.9 71 -4.7 23.6
06:40 1017 30.03 846 24.98 -0 32 71 -4.6 23.6
06:45 1017 30.03 846 24.98 0.1 32.2 68 -5 22.9
06:50 1017 30.03 846 24.98 0.5 32.9 66 -5.1 22.8
06:55 1017 30.03 846 24.98 0.8 33.5 63 -5.3 22.4
07:00 1017 30.03 846 24.98 1 33.8 64 -5 23.1
07:05 1017 30.03 846 24.98 0.9 33.6 67 -4.6 23.7
07:10 1017 30.03 846 24.98 0.9 33.6 67 -4.6 23.7
07:15 1017 30.03 846 24.98 1 33.9 66 -4.6 23.8
07:20 1017 30.03 846 24.98 0.7 33.3 69 -4.3 24.2
07:25 1017 30.03 846 24.98 0.5 32.9 67 -4.9 23.1
07:30 1017 30.03 846 24.98 0.8 33.5 66 -4.7 23.5
07:35 1017 30.03 846 24.98 1.3 34.3 65 -4.6 23.6
07:40 1017 30.03 846 24.98 1.9 35.4 63 -4.5 24
07:45 1017 30.03 846 24.98 1.8 35.2 64 -4.3 24.3
07:50 1017 30.03 846 24.98 1.8 35.3 62 -4.7 23.5
07:55 1017 30.03 846 24.98 2.3 36.1 58 -5 22.9
08:00 1017 30.03 846 24.98 2.8 37.1 57 -4.8 23.4
08:05 1017 30.03 846 24.98 3.2 37.7 57 -4.6 23.8
08:10 1017 30.03 846 24.98 3.7 38.6 56 -4.2 24.4
08:15 1017 30.03 846 24.98 4 39.2 55 -4.2 24.5
08:20 1017 30.03 846 24.98 4.4 39.9 55 -4 24.9
08:25 1017 30.03 846 24.98 4.8 40.6 51 -4.5 23.8
08:30 1017 30.03 846 24.98 5 41 53 -3.9 25
08:35 1017 30.03 846 24.98 5.6 42.1 52 -3.4 25.9
08:40 1017 30.03 846 24.98 5.8 42.4 53 -3.1 26.5
08:45 1017 30.03 846 24.98 6.3 43.4 51 -3.1 26.5
08:50 1017 30.03 846 24.98 7.3 45.1 48 -3.1 26.4
08:55 1017 30.03 846 24.98 8.2 46.8 43 -3.6 25.5
09:00 1017 30.03 846 24.98 8.5 47.3 39 -4.7 23.6
09:05 1017 30.03 846 24.98 9 48.2 34 -6 21.2
09:10 1017 30.03 846 24.98 9 48.1 37 -4.9 23.1
09:15 1017 30.03 846 24.98 9 48.2 34 -6.1 21
09:20 1017 30.03 846 24.98 8.7 47.7 37 -5.3 22.5
09:25 1017 30.03 846 24.98 9.1 48.3 33 -6.5 20.3
09:30 1017 30.03 846 24.98 9.2 48.5 35 -5.5 22.2
09:35 1017 30.03 846 24.98 9.5 49.1 33 -6 21.1
09:40 1017 30.03 846 24.98 9.8 49.6 32 -6.2 20.9
09:45 1017 30.03 846 24.98 10.2 50.4 32 -5.7 21.7
09:50 1017 30.03 846 24.98 10.6 51.1 30 -6.4 20.6
09:55 1017 30.03 846 24.98 11.2 52.1 29 -6.1 21
10:00 1017 30.03 846 24.98 11.7 53 29 -5.7 21.8
10:05 1017 30.03 846 24.98 11.4 52.5 29 -6.2 20.9
10:10 1017 30.03 846 24.98 11.3 52.4 29 -5.9 21.4
10:15 1017 30.03 846 24.98 11.2 52.2 30 -5.8 21.5
10:20 1017 30.03 846 24.98 11.4 52.4 29 -6 21.3
10:25 1017 30.03 846 24.98 11.9 53.3 30 -5.1 22.7
10:30 1017 30.03 846 24.98 12.1 53.7 28 -5.9 21.4
10:35 1017 30.03 846 24.98 12.4 54.3 28 -5.7 21.8
10:40 1017 30.03 846 24.98 12.2 53.9 28 -5.8 21.6
10:45 1016 30 846 24.98 12 53.6 29 -5.2 22.6
10:50 1016 30 846 24.98 11.7 53.1 29 -5.5 22.1
10:55 1016 30 846 24.98 11.7 53 31 -4.8 23.3
11:00 1016 30 846 24.98 11.9 53.4 31 -4.8 23.4
11:05 1016 30 846 24.98 11.7 53 31 -4.7 23.6
11:10 1016 30 845 24.95 11.7 53.1 31 -4.7 23.5
11:15 1016 30 845 24.95 12.3 54.2 30 -4.6 23.8
11:20 1016 30 845 24.95 12.7 54.8 29 -5 23.1
11:25 1016 30 845 24.95 12.3 54.2 28 -5.5 22.1
11:30 1016 30 845 24.95 12.8 55.1 29 -4.7 23.5
11:35 1016 30 845 24.95 12.2 54 30 -4.9 23.2
11:40 1016 30 845 24.95 12.3 54.2 30 -4.8 23.4
11:45 1016 30 845 24.95 12.5 54.4 30 -4.4 24.1
11:50 1016 30 845 24.95 12.9 55.2 28 -5 23.1
11:55 1016 30 845 24.95 12.9 55.2 28 -4.9 23.1
12:00 1016 30 845 24.95 12.1 53.7 32 -4.3 24.3
12:05 1016 30 845 24.95 12.7 54.8 28 -5.1 22.8
12:10 1016 30 845 24.95 12.1 53.8 32 -4.2 24.5
12:15 1016 30 845 24.95 11.8 53.2 32 -4.5 24
12:20 1016 30 845 24.95 12 53.5 32 -4.3 24.2
12:25 1016 30 845 24.95 12.3 54.2 32 -4 24.7
12:30 1016 30 845 24.95 13.1 55.5 28 -5 23
12:35 1016 30 845 24.95 12.4 54.3 32 -3.9 24.9
12:40 1016 30 845 24.95 12.4 54.4 30 -4.8 23.4
12:45 1016 30 845 24.95 13.1 55.5 29 -4.3 24.2
12:50 1016 30 845 24.95 13.3 55.9 28 -4.6 23.7
12:55 1016 30 845 24.95 13.2 55.8 29 -4.2 24.5
13:00 1016 30 845 24.95 13.6 56.4 27 -4.8 23.4
13:05 1016 30 845 24.95 13.9 57 28 -4.4 24.1
13:10 1016 30 845 24.95 13.3 56 30 -3.9 24.9
13:15 1016 30 845 24.95 12.8 55.1 31 -4 24.8
13:20 1016 30 845 24.95 12.6 54.6 31 -4.1 24.7
13:25 1016 30 845 24.95 12.8 55 32 -3.7 25.4
13:30 1016 30 845 24.95 12.8 55 30 -4.2 24.4
13:35 1015 29.97 845 24.95 14.4 57.9 28 -4 24.8
13:40 1015 29.97 845 24.95 14.7 58.4 27 -4.3 24.3
13:45 1015 29.97 845 24.95 15.1 59.2 27 -3.7 25.4
13:50 1015 29.97 845 24.95 15.1 59.2 27 -3.4 25.8
13:55 1015 29.97 844 24.92 15.1 59.3 27 -3.5 25.7
14:00 1015 29.97 844 24.92 15.3 59.6 27 -3.5 25.7
14:05 1015 29.97 844 24.92 15.3 59.5 26 -4 24.7
14:10 1015 29.97 844 24.92 15.1 59.2 27 -3.8 25.1
14:15 1015 29.97 844 24.92 15.5 59.8 27 -3.5 25.7
14:20 1015 29.97 844 24.92 15.3 59.6 26 -3.9 25
14:25 1015 29.97 844 24.92 15.1 59.2 26 -4 24.8
14:30 1015 29.97 844 24.92 14.8 58.6 26 -4.4 24.1
14:35 1015 29.97 844 24.92 14.5 58 27 -4 24.8
14:40 1015 29.97 844 24.92 14.3 57.8 26 -5.1 22.8
14:45 1015 29.97 844 24.92 14.6 58.3 25 -4.9 23.2
14:50 1015 29.97 844 24.92 14.6 58.3 27 -4 24.8
14:55 1015 29.97 844 24.92 14.4 57.9 26 -4.6 23.8
15:00 1015 29.97 844 24.92 14.1 57.4 27 -4.3 24.2
15:05 1015 29.97 844 24.92 13.9 57 28 -4.4 24.1
15:10 1015 29.97 844 24.92 13.9 57 27 -4.8 23.4
15:15 1015 29.97 844 24.92 13.9 56.9 27 -4.8 23.4
15:20 1015 29.97 844 24.92 13.9 57 27 -4.6 23.7
15:25 1015 29.97 844 24.92 13.9 57.1 29 -3.6 25.6
15:30 1015 29.97 844 24.92 13.9 57 30 -3.5 25.7
15:35 1015 29.97 844 24.92 14 57.2 29 -3.7 25.3
15:40 1015 29.97 844 24.92 13.9 57 31 -2.9 26.8
15:45 1015 29.97 844 24.92 13.6 56.4 33 -2.4 27.8
15:50 1015 29.97 844 24.92 13.4 56.1 34 -2.1 28.1
15:55 1015 29.97 844 24.92 13.5 56.3 34 -2.1 28.2
16:00 1015 29.97 844 24.92 13 55.5 35 -2 28.4
16:05 1015 29.97 844 24.92 12.9 55.3 35 -2.3 27.9
16:10 1015 29.97 844 24.92 13.7 56.7 33 -2.2 28
16:15 1014 29.94 844 24.92 13.9 56.9 33 -1.9 28.5
16:20 1014 29.94 844 24.92 13.4 56.2 33 -2.6 27.2
16:25 1014 29.94 844 24.92 13.6 56.4 32 -2.7 27.2
16:30 1015 29.97 844 24.92 13.8 56.9 32 -2.6 27.3
16:35 1015 29.97 844 24.92 13.9 56.9 31 -3 26.6
16:40 1015 29.97 844 24.92 13.7 56.6 32 -2.5 27.4
16:45 1015 29.97 844 24.92 13.4 56 35 -1.8 28.7
16:50 1015 29.97 844 24.92 13 55.3 35 -1.9 28.5
16:55 1015 29.97 844 24.92 12.8 55 35 -2.1 28.3
17:00 1015 29.97 844 24.92 12.4 54.4 37 -1.8 28.8
17:05 1015 29.97 844 24.92 12.1 53.9 38 -1.6 29.1
17:10 1015 29.97 844 24.92 12.2 53.9 37 -2.1 28.3
17:15 1015 29.97 844 24.92 12.2 53.9 37 -2 28.3
17:20 1015 29.97 844 24.92 12.1 53.9 39 -1.2 29.8
17:25 1015 29.97 844 24.92 12.2 54 38 -1.6 29.1
17:30 1015 29.97 844 24.92 12.2 54 39 -1.3 29.7
17:35 1015 29.97 844 24.92 12.2 53.9 41 -0.6 30.9
17:40 1015 29.97 844 24.92 12.1 53.8 39 -1.4 29.6
17:45 1015 29.97 844 24.92 12 53.6 41 -0.9 30.3
17:50 1015 29.97 844 24.92 11.9 53.4 40 -1.3 29.7
17:55 1015 29.97 844 24.92 11.8 53.3 41 -1.1 30
18:00 1015 29.97 844 24.92 11.8 53.2 40 -1.2 29.8
18:05 1015 29.97 844 24.92 11.6 53 41 -1 30.2
18:10 1015 29.97 844 24.92 11.3 52.4 42 -1.1 30
18:15 1015 29.97 844 24.92 11.2 52.1 43 -1 30.2
18:20 1015 29.97 844 24.92 11.1 51.9 43 -1 30.1
18:25 1015 29.97 844 24.92 10.9 51.6 42 -1.3 29.6
18:30 1015 29.97 845 24.95 10.8 51.5 44 -0.9 30.3
18:35 1016 30 845 24.95 10.6 51 47 -0.2 31.7
18:40 1016 30 845 24.95 10.4 50.6 47 -0.5 31.2
18:45 1016 30 845 24.95 10.3 50.5 49 0.1 32.1
18:50 1016 30 845 24.95 10.3 50.6 47 -0.4 31.3
18:55 1016 30 845 24.95 10 49.9 49 -0.1 31.8
19:00 1016 30 845 24.95 9.8 49.6 49 -0.4 31.2
19:05 1016 30 845 24.95 9.8 49.7 47 -0.9 30.3
19:10 1016 30 845 24.95 9.8 49.6 48 -0.5 31
19:15 1016 30 845 24.95 9.7 49.5 47 -1 30.2
19:20 1016 30 845 24.95 9.7 49.4 49 -0.5 31.1
19:25 1016 30 845 24.95 9.6 49.2 47 -1 30.2
19:30 1016 30 845 24.95 9.6 49.2 49 -0.6 30.9
19:35 1016 30 845 24.95 9.6 49.3 50 -0.4 31.3
19:40 1016 30 846 24.98 9.5 49.1 49 -0.7 30.7
19:45 1016 30 845 24.95 9.5 49.1 49 -0.8 30.6
19:50 1016 30 846 24.98 9.6 49.2 53 0.4 32.7
19:55 1017 30.03 846 24.98 9.3 48.8 54 0.5 32.8
20:00 1017 30.03 846 24.98 9 48.2 59 1.3 34.4
20:05 1017 30.03 846 24.98 8.8 47.8 56 0.4 32.8
20:10 1017 30.03 846 24.98 8.7 47.7 54 -0.1 31.8
20:15 1017 30.03 846 24.98 8.8 47.8 60 1.6 34.8
20:20 1016 30 846 24.98 8.6 47.4 57 0.6 33
20:25 1017 30.03 846 24.98 8.5 47.3 57 0.5 32.8
20:30 1017 30.03 846 24.98 8.4 47.1 59 0.9 33.6
20:35 1017 30.03 846 24.98 8.4 47.1 61 1.4 34.5
20:40 1017 30.03 846 24.98 8.4 47.1 62 1.6 34.8
20:45 1017 30.03 846 24.98 8.4 47.2 62 1.6 34.9
20:50 1017 30.03 847 25.01 8.5 47.2 59 0.9 33.7
20:55 1017 30.03 847 25.01 8.4 47.2 57 0.5 32.9
21:00 1017 30.03 847 25.01 8.3 46.9 58 0.6 33
21:05 1017 30.03 847 25.01 8.1 46.5 60 0.8 33.5
21:10 1018 30.06 847 25.01 7.9 46.2 61 0.9 33.6
21:15 1018 30.06 847 25.01 7.8 46 63 1.2 34.1
21:20 1018 30.06 847 25.01 7.6 45.6 66 1.7 35
21:25 1018 30.06 847 25.01 7.3 45.2 70 2.2 35.9
21:30 1018 30.06 847 25.01 7 44.6 71 2.1 35.8
21:35 1018 30.06 847 25.01 6.8 44.2 72 2 35.6
21:40 1018 30.06 847 25.01 6.8 44.2 72 2.1 35.8
21:45 1018 30.06 847 25.01 6.8 44.2 73 2.3 36.2
21:50 1018 30.06 847 25.01 6.8 44.2 73 2.3 36.2
21:55 1018 30.06 847 25.01 6.7 44.1 74 2.5 36.4
22:00 1018 30.06 847 25.01 6.7 44.1 76 2.7 36.9
22:05 1018 30.06 847 25.01 6.6 43.9 77 2.8 37.1
22:10 1018 30.06 847 25.01 6.4 43.5 79 3 37.5
22:15 1018 30.06 847 25.01 5.8 42.5 82 3 37.5
22:20 1018 30.06 847 25.01 5.8 42.4 83 3.1 37.5
22:25 1018 30.06 847 25.01 5.8 42.5 81 2.9 37.1
22:30 1018 30.06 847 25.01 5.8 42.5 82 2.9 37.2
22:35 1018 30.06 847 25.01 5.8 42.4 81 2.7 36.8
22:40 1018 30.06 848 25.04 5.8 42.4 81 2.8 37
22:45 1018 30.06 848 25.04 5.8 42.5 81 2.8 37
22:50 1018 30.06 847 25.01 5.9 42.7 80 2.8 37
22:55 1018 30.06 847 25.01 5.9 42.6 81 2.8 37.1
23:00 1018 30.06 847 25.01 5.9 42.5 82 3 37.3
23:05 1018 30.06 848 25.04 5.7 42.3 82 2.9 37.3
23:10 1018 30.06 848 25.04 5.7 42.3 82 2.9 37.1
23:15 1018 30.06 848 25.04 5.8 42.5 80 2.7 36.9
23:20 1019 30.09 848 25.04 6 42.8 80 2.8 37.1
23:25 1019 30.09 848 25.04 6.1 43 81 3 37.4
23:30 1019 30.09 848 25.04 6.1 43 81 3 37.4
23:35 1019 30.09 848 25.04 6 42.8 81 2.9 37.3
23:40 1019 30.09 848 25.04 6 42.7 80 2.7 36.9
23:45 1019 30.09 848 25.04 5.9 42.7 79 2.6 36.7
23:50 1019 30.09 848 25.04 5.9 42.7 79 2.6 36.8
23:55 1019 30.09 848 25.04 5.9 42.6 79 2.5 36.5
24:00 1019 30.09 848 25.04 5.8 42.5 80 2.6 36.6